Latest Weather Observations for Bradshaw-Koolendong Valley

IDD60801

Issued at 10:11 pm CST Monday 6 February 2023 (issued every 10 minutes, with the page automatically refreshed every 10 minutes)

About weather observations | Map of weather stations | Latest weather observations for NT | Other Formats
Station Details ID: 014981 Name: BRADSHAW - KOOLENDONG VALLEY (DEFENCE) Lat: -15.19 Lon: 130.12 Height: 42.0 m
Data from the previous 72 hours. | See also: Recent months at Bradshaw-Koolendong Valley
Date/Time
CST
Temp
°C
App
Temp
°C
Dew
Point
°C
Rel
Hum
%
Delta-T
°C
Wind Press
QNH
hPa
Press
MSL
hPa
Rain since
9am
mm
Dir  Spd
km/h
Gust
km/h
Spd
kts
Gust
kts
06/10:00pm 23.7 28.3 21.8 89 1.3 CALM 0 0 0 0 1008.8 - 0.0
06/09:30pm 24.0 28.7 21.9 88 1.4 CALM 0 0 0 0 1008.7 - 0.0
06/09:00pm 24.7 29.4 22.0 85 1.8 CALM 0 0 0 0 1008.4 - 0.0
06/08:30pm 25.5 30.3 22.2 82 2.2 CALM 0 0 0 0 1008.3 - 0.0
06/08:00pm 26.8 31.7 22.4 77 3.0 CALM 0 0 0 0 1008.0 - 0.0
06/07:30pm 29.2 34.4 22.9 69 4.3 CALM 0 0 0 0 1007.7 - 0.0
06/07:00pm 31.1 35.8 21.9 58 6.2 CALM 0 0 0 0 1007.3 - 0.0
06/06:30pm 32.9 35.3 17.9 41 9.7 SSW 2 6 1 3 1007.0 - 0.0
06/06:00pm 33.3 35.1 17.5 39 10.2 SSW 4 7 2 4 1006.7 - 0.0
06/05:30pm 33.8 35.3 17.5 38 10.5 SSW 6 9 3 5 1006.6 - 0.0
06/05:00pm 34.3 35.4 16.6 34 11.3 SSW 6 9 3 5 1006.5 - 0.0
06/04:30pm 34.3 35.2 16.2 34 11.5 SSW 6 13 3 7 1006.5 - 0.0
06/04:00pm 34.7 36.0 16.1 33 11.8 SE 4 9 2 5 1006.7 - 0.0
06/03:30pm 34.6 35.3 15.5 32 12.0 S 6 9 3 5 1007.0 - 0.0
06/03:00pm 34.8 35.5 15.7 32 12.1 SW 6 11 3 6 1007.2 - 0.0
06/02:30pm 34.6 35.8 15.0 31 12.2 NW 2 7 1 4 1007.4 - 0.0
06/02:00pm 34.3 34.9 14.2 29 12.4 SSE 4 9 2 5 1007.7 - 0.0
06/01:30pm 34.1 34.3 13.0 28 12.8 NE 4 9 2 5 1008.3 - 0.0
06/01:00pm 33.6 34.0 13.6 29 12.2 NE 4 7 2 4 1008.7 - 0.0
06/12:30pm 33.7 34.1 14.7 32 11.8 SE 6 9 3 5 1009.0 - 0.0
06/12:00pm 33.3 33.7 14.8 32 11.5 ESE 6 11 3 6 1009.5 - 0.0
06/11:30am 32.6 33.1 15.1 34 10.9 SSE 6 13 3 7 1009.8 - 0.0
06/11:00am 31.8 32.9 15.7 37 10.0 SE 4 9 2 5 1010.0 - 0.0
06/10:30am 31.6 33.1 17.5 43 9.0 SE 6 13 3 7 1010.2 - 0.0
06/10:00am 30.3 31.7 16.3 42 8.8 SSE 4 6 2 3 1010.4 - 0.0
06/09:30am 29.4 32.3 18.2 51 7.2 CALM 0 4 0 2 1010.4 - 0.0
06/09:00am 27.3 31.2 20.4 66 4.5 CALM 0 0 0 0 1010.4 - 0.0
06/08:30am 24.6 29.0 21.3 82 2.2 CALM 0 0 0 0 1010.3 - 0.0
06/08:00am 22.4 27.2 22.1 98 0.2 CALM 0 0 0 0 1010.1 - 0.0
06/07:30am 20.6 24.5 20.3 98 0.2 CALM 0 0 0 0 1009.8 - 0.0
06/07:00am 19.6 22.9 19.1 97 0.3 CALM 0 0 0 0 1009.4 - 0.0
06/06:30am 19.6 22.9 19.1 97 0.3 CALM 0 0 0 0 1008.8 - 0.0
06/06:00am 19.7 23.0 19.2 97 0.3 CALM 0 0 0 0 1008.4 - 0.0
06/05:30am 20.0 23.5 19.5 97 0.3 CALM 0 0 0 0 1008.2 - 0.0
06/05:00am 20.4 24.1 19.9 97 0.3 CALM 0 0 0 0 1008.1 - 0.0
06/04:30am 20.5 24.2 20.0 97 0.3 CALM 0 0 0 0 1008.1 - 0.0
06/04:00am 20.5 24.2 20.0 97 0.3 CALM 0 0 0 0 1008.1 - 0.0
06/03:30am 20.8 24.7 20.3 97 0.3 CALM 0 0 0 0 1008.1 - 0.0
06/03:00am 21.0 25.0 20.5 97 0.3 CALM 0 0 0 0 1008.1 - 0.0
06/02:30am 21.2 25.3 20.7 97 0.3 CALM 0 0 0 0 1008.2 - 0.0
06/02:00am 21.3 25.4 20.8 97 0.3 CALM 0 0 0 0 1008.3 - 0.0
06/01:30am 21.5 25.6 20.8 96 0.5 CALM 0 0 0 0 1008.7 - 0.0
06/01:00am 21.6 25.8 20.9 96 0.5 CALM 0 0 0 0 1008.9 - 0.0
06/12:30am 21.6 25.7 20.8 95 0.5 CALM 0 0 0 0 1009.0 - 0.0
06/12:00am 22.1 26.5 21.3 95 0.5 CALM 0 0 0 0 1009.0 - 0.0
 
Date/Time
CST
Temp
°C
App
Temp
°C
Dew
Point
°C
Rel
Hum
%
Delta-T
°C
Wind Press
QNH
hPa
Press
MSL
hPa
Rain since
9am
mm
Dir  Spd
km/h
Gust
km/h
Spd
kts
Gust
kts
05/11:30pm 22.2 26.5 21.2 94 0.7 CALM 0 0 0 0 1009.0 - 0.0
05/11:00pm 22.3 26.5 20.9 92 0.9 CALM 0 0 0 0 1009.0 - 0.0
05/10:30pm 22.6 26.7 20.7 89 1.2 CALM 0 0 0 0 1008.8 - 0.0
05/10:00pm 23.1 27.2 20.8 87 1.5 CALM 0 0 0 0 1008.7 - 0.0
05/09:30pm 23.6 28.0 21.3 87 1.5 CALM 0 0 0 0 1008.6 - 0.0
05/09:00pm 24.6 29.6 22.5 88 1.4 CALM 0 0 0 0 1008.5 - 0.0
05/08:30pm 25.4 30.1 21.9 81 2.3 CALM 0 0 0 0 1008.3 - 0.0
05/08:00pm 26.4 30.8 21.4 74 3.3 CALM 0 4 0 2 1007.9 - 0.0
05/07:30pm 28.5 33.5 22.5 70 4.1 CALM 0 0 0 0 1007.5 - 0.0
05/07:00pm 31.3 34.8 19.6 49 7.7 CALM 0 2 0 1 1007.0 - 0.0
05/06:30pm 32.3 32.9 15.3 35 10.6 SSE 6 13 3 7 1006.8 - 0.0
05/06:00pm 33.0 33.5 15.5 35 10.9 SE 7 15 4 8 1006.6 - 0.0
05/05:30pm 33.4 34.2 15.8 34 11.1 ESE 6 13 3 7 1006.5 - 0.0
05/05:00pm 33.5 34.1 15.9 34 11.1 SE 7 13 4 7 1006.4 - 0.0
05/04:30pm 33.7 34.6 16.1 34 11.1 SE 6 17 3 9 1006.5 - 0.0
05/04:00pm 33.9 34.8 16.7 35 11.0 SE 7 15 4 8 1006.5 - 0.0
05/03:30pm 33.9 34.3 16.3 35 11.2 SSE 9 24 5 13 1006.7 - 0.0
05/03:00pm 33.6 33.0 15.6 34 11.3 SSE 13 26 7 14 1006.8 - 0.0
05/02:30pm 33.9 34.1 16.7 35 11.0 SE 11 22 6 12 1007.0 - 0.0
05/02:00pm 33.6 33.7 15.6 34 11.3 E 9 19 5 10 1007.2 - 0.0
05/01:30pm 33.4 33.9 17.5 38 10.2 SE 11 19 6 10 1007.5 - 0.0
05/01:00pm 33.0 34.4 18.7 42 9.3 ESE 9 17 5 9 1007.9 - 0.0
05/12:30pm 33.0 34.0 18.7 42 9.4 E 11 19 6 10 1008.2 - 0.0
05/12:00pm 32.6 33.3 18.0 41 9.4 E 11 22 6 12 1008.5 - 0.0
05/11:30am 32.8 33.5 17.0 38 10.1 ENE 9 19 5 10 1008.8 - 0.0
05/11:00am 32.4 31.9 15.8 36 10.4 E 13 24 7 13 1009.3 - 0.0
05/10:30am 32.0 34.1 19.3 47 8.3 E 7 19 4 10 1009.3 - 0.0
05/10:00am 31.4 33.3 19.7 49 7.7 E 9 19 5 10 1009.5 - 0.0
05/09:30am 30.5 34.1 22.1 61 5.7 ENE 6 7 3 4 1009.7 - 0.0
05/09:00am 28.4 33.5 23.3 74 3.5 NNW 2 6 1 3 1009.7 - 0.0
05/08:30am 27.2 32.7 23.4 80 2.6 CALM 0 0 0 0 1009.8 - 0.0
05/08:00am 25.9 31.4 23.4 86 1.7 CALM 0 0 0 0 1009.7 - 0.0
05/07:30am 25.1 30.9 23.9 93 0.8 CALM 0 0 0 0 1009.5 - 0.0
05/07:00am 24.4 30.1 23.7 96 0.5 CALM 0 0 0 0 1009.4 - 0.0
05/06:30am 24.2 29.8 23.5 96 0.5 CALM 0 0 0 0 1008.9 - 0.0
05/06:00am 24.3 29.9 23.6 96 0.5 CALM 0 0 0 0 1008.6 - 0.0
05/05:30am 24.1 29.6 23.4 96 0.5 CALM 0 0 0 0 1008.2 - 0.0
05/05:00am 24.2 29.8 23.5 96 0.5 CALM 0 0 0 0 1007.9 - 0.0
05/04:30am 24.1 29.5 23.2 95 0.6 CALM 0 0 0 0 1007.7 - 0.0
05/04:00am 24.0 29.3 23.0 94 0.7 CALM 0 6 0 3 1007.5 - 0.0
05/03:30am 23.9 29.1 22.9 94 0.7 CALM 0 0 0 0 1007.2 - 0.0
05/03:00am 24.5 30.1 23.5 94 0.7 CALM 0 0 0 0 1007.1 - 0.0
05/02:30am 24.4 29.8 23.2 93 0.8 CALM 0 0 0 0 1007.1 - 0.0
05/02:00am 24.4 29.8 23.2 93 0.8 CALM 0 0 0 0 1007.4 - 0.0
05/01:30am 24.7 30.0 23.1 91 1.1 CALM 0 0 0 0 1007.6 - 0.0
05/01:00am 24.9 30.1 22.8 88 1.4 CALM 0 0 0 0 1007.9 - 0.0
05/12:30am 25.0 30.0 22.5 86 1.7 CALM 0 0 0 0 1008.4 - 0.0
05/12:00am 25.4 30.2 22.1 82 2.2 CALM 0 4 0 2 1008.6 - 0.0
 
Date/Time
CST
Temp
°C
App
Temp
°C
Dew
Point
°C
Rel
Hum
%
Delta-T
°C
Wind Press
QNH
hPa
Press
MSL
hPa
Rain since
9am
mm
Dir  Spd
km/h
Gust
km/h
Spd
kts
Gust
kts
04/11:30pm 25.4 30.1 21.9 81 2.3 CALM 0 4 0 2 1009.1 - 0.0
04/11:00pm 25.3 28.7 21.6 80 2.5 ENE 6 13 3 7 1009.4 - 0.0
04/10:30pm 25.5 28.8 21.8 80 2.5 ENE 7 19 4 10 1009.0 - 0.0
04/10:00pm 25.7 28.4 22.2 81 2.4 NE 11 24 6 13 1008.6 - 0.0
04/09:30pm 25.9 29.0 22.2 80 2.5 NE 9 17 5 9 1008.9 - 0.0
04/09:00pm 25.9 29.6 22.6 82 2.2 NNE 7 15 4 8 1008.8 - 0.0
04/08:30pm 25.8 29.1 22.5 82 2.2 NE 9 19 5 10 1008.4 - 0.0
04/08:00pm 27.9 30.3 22.2 71 3.8 E 13 24 7 13 1007.9 - 0.0
04/07:30pm 28.9 35.0 24.5 77 3.1 CALM 0 2 0 1 1006.8 - 0.0
04/07:00pm 29.8 35.4 23.5 69 4.3 CALM 0 0 0 0 1006.2 - 0.0
04/06:30pm 30.3 35.4 22.7 64 5.2 CALM 0 0 0 0 1005.1 - 0.0
04/06:00pm 30.1 35.5 23.3 67 4.7 CALM 0 2 0 1 1004.5 - 0.0
04/05:30pm 29.8 34.6 22.8 66 4.8 WNW 2 7 1 4 1004.1 - 0.0
04/05:00pm 30.1 34.0 22.5 63 5.2 W 6 13 3 7 1004.0 - 0.0
04/04:30pm 32.2 35.7 21.1 52 7.5 SW 4 7 2 4 1003.9 - 0.0
04/04:00pm 30.3 33.7 21.7 60 5.8 SSW 6 9 3 5 1003.8 - 0.0
04/03:30pm 28.6 31.6 21.9 67 4.5 SSW 9 17 5 9 1004.9 - 0.0
04/03:00pm 28.4 30.2 22.6 71 4.0 S 17 28 9 15 1005.4 - 0.0
04/02:30pm 30.1 33.8 23.3 67 4.7 SE 9 22 5 12 1005.5 - 0.0
04/02:00pm 30.1 32.1 22.3 63 5.3 ESE 15 30 8 16 1005.5 - 0.0
04/01:30pm 34.1 37.2 22.8 51 7.8 NW 11 22 6 12 1004.8 - 0.0
04/01:00pm 33.1 37.4 24.3 60 6.2 NNW 9 15 5 8 1005.5 - 0.0
04/12:30pm 33.4 37.4 23.7 56 6.8 WNW 9 15 5 8 1006.0 - 0.0
04/12:00pm 33.4 38.1 24.3 59 6.4 WNW 7 15 4 8 1006.4 - 0.0
04/11:30am 32.8 37.3 23.7 58 6.4 N 6 11 3 6 1006.7 - 0.0
04/11:00am 32.4 36.7 23.6 59 6.1 N 7 13 4 7 1006.8 - 0.0
04/10:30am 32.5 37.7 25.1 65 5.3 N 7 13 4 7 1006.9 - 0.0
04/10:00am 31.5 36.3 24.1 65 5.2 NNW 6 13 3 7 1007.0 - 0.0
04/09:30am 30.6 35.1 24.0 68 4.6 NW 7 13 4 7 1007.0 - 0.0
04/09:00am 30.2 35.4 24.8 73 3.8 NW 6 9 3 5 1006.9 - 0.0
04/08:30am 29.4 36.4 25.8 81 2.6 CALM 0 0 0 0 1006.9 - 0.0
04/08:00am 27.6 34.8 26.2 92 1.0 CALM 0 0 0 0 1006.9 - 0.0
04/07:30am 25.9 32.6 25.4 97 0.4 CALM 0 0 0 0 1006.8 - 0.0
04/07:00am 25.7 32.3 25.2 97 0.3 CALM 0 0 0 0 1006.6 - 0.0
04/06:30am 25.8 32.3 25.1 96 0.5 CALM 0 2 0 1 1006.3 - 0.0
04/06:00am 25.9 32.5 25.2 96 0.5 CALM 0 0 0 0 1006.0 - 0.0
04/05:30am 25.9 32.5 25.2 96 0.5 CALM 0 0 0 0 1005.8 - 0.0
04/05:00am 25.9 32.4 25.0 95 0.6 CALM 0 0 0 0 1005.5 - 0.0
04/04:30am 26.4 33.1 25.4 94 0.7 CALM 0 0 0 0 1005.4 - 0.0
04/04:00am 26.9 33.8 25.7 93 0.8 CALM 0 0 0 0 1005.1 - 0.0
04/03:30am 27.2 33.4 25.2 89 1.4 N 2 6 1 3 1005.0 - 0.0
04/03:00am 27.3 33.3 24.9 87 1.7 N 2 6 1 3 1005.2 - 0.0
04/02:30am 27.6 32.8 24.8 85 2.0 NNW 6 7 3 4 1005.1 - 0.0
04/02:00am 27.6 32.7 24.6 84 2.1 NNW 6 9 3 5 1005.4 - 0.0
04/01:30am 28.0 33.0 24.8 83 2.2 N 7 15 4 8 1005.8 - 0.0
04/01:00am 27.9 33.0 24.7 83 2.2 N 6 7 3 4 1005.9 - 0.0
04/12:30am 28.1 33.2 24.7 82 2.4 N 6 9 3 5 1006.1 - 0.0
04/12:00am 28.8 33.4 24.1 76 3.3 N 7 13 4 7 1006.2 - 0.0
 
Date/Time
CST
Temp
°C
App
Temp
°C
Dew
Point
°C
Rel
Hum
%
Delta-T
°C
Wind Press
QNH
hPa
Press
MSL
hPa
Rain since
9am
mm
Dir  Spd
km/h
Gust
km/h
Spd
kts
Gust
kts
03/11:30pm 28.7 34.1 23.8 75 3.4 N 2 7 1 4 1006.3 - 0.0
03/11:00pm 29.2 34.7 24.1 74 3.5 NNE 2 6 1 3 1006.2 - 0.0
03/10:30pm 28.6 34.9 24.8 80 2.7 CALM 0 0 0 0 1006.1 - 0.0

Other formats

Comma delimited format used in spreadsheet applications
http://www.bom.gov.au/fwo/IDD60801/IDD60801.94222.axf

JavaScript Object Notation format (JSON) in row-major order
http://www.bom.gov.au/fwo/IDD60801/IDD60801.94222.json

Data quality

Most of these data are generated automatically and are frequently updated. Quality checks on data are not normally performed. It is possible for incorrect values to appear. Refer to information at About Latest Weather Observations and please check the disclaimer before using these data.